Time;durP1;ratioP1;P1;durP2;ratioP2;P2;SDS_P1;SDS_P2;PMS_P1;PMS_P2;Temp;Humidity;BMP_temperature;BMP_pressure;BME280_temperature;BME280_humidity;BME280_pressure;Samples;Min_cycle;Max_cycle;Signal;HPM_P1;HPM_P2
2023/08/26 00:02:06;;;;;;;;;;;;;;;22.55;93.90;96152.45;108515;1272;124714;-91
2023/08/26 00:04:36;;;;;;;;;;;;;;;22.56;93.45;96152.77;108673;1274;22579;-91
2023/08/26 00:07:02;;;;;;;;;;;;;;;22.60;92.95;96160.50;108337;1276;124943;-92
2023/08/26 00:09:28;;;;;;;;;;;;;;;22.69;92.30;96152.73;108231;1275;22463;-91
2023/08/26 00:11:54;;;;;;;;;;;;;;;22.81;91.53;96158.11;108404;1278;22477;-92
2023/08/26 00:14:21;;;;;;;;;;;;;;;22.93;91.16;96160.05;108258;1276;124253;-92
2023/08/26 00:16:48;;;;;;;;;;;;;;;23.05;90.90;96159.88;108496;1278;24342;-91
2023/08/26 00:19:16;;;;;;;;;;;;;;;23.13;90.98;96163.01;108360;1279;124624;-92
2023/08/26 00:21:43;;;;;;;;;;;;;;;23.16;91.38;96158.66;108573;1276;22518;-92
2023/08/26 00:24:10;;;;;;;;;;;;;;;23.17;91.07;96157.86;108290;1278;22614;-92
2023/08/26 00:26:37;;;;;;;;;;;;;;;23.19;90.23;96160.23;108366;1279;126156;-91
2023/08/26 00:29:03;;;;;;;;;;;;;;;23.27;89.56;96165.64;108322;1270;25262;-91
2023/08/26 00:31:31;;;;;;;;;;;;;;;23.37;89.45;96161.54;108373;1278;125417;-91
2023/08/26 00:34:03;;;;;;;;;;;;;;;23.47;88.98;96162.70;108557;1273;22463;-91
2023/08/26 00:36:30;;;;;;;;;;;;;;;23.55;88.43;96162.41;108781;1270;22611;-91
2023/08/26 00:38:58;;;;;;;;;;;;;;;23.66;87.99;96158.86;108337;1275;124477;-91
2023/08/26 00:41:23;;;;;;;;;;;;;;;23.73;87.87;96157.34;108595;1270;25380;-92
2023/08/26 00:43:50;;;;;;;;;;;;;;;23.81;87.62;96164.02;108699;1276;124093;-91
2023/08/26 00:46:17;;;;;;;;;;;;;;;23.88;87.38;96165.89;108475;1278;25243;-90
2023/08/26 00:48:43;;;;;;;;;;;;;;;23.91;87.26;96161.90;108464;1278;23608;-90
2023/08/26 00:51:09;;;;;;;;;;;;;;;23.93;87.09;96158.04;108281;1270;124969;-91
2023/08/26 00:53:36;;;;;;;;;;;;;;;23.94;87.17;96154.58;108348;1278;22943;-91
2023/08/26 00:56:03;;;;;;;;;;;;;;;23.94;86.87;96153.89;108437;1278;124496;-91
2023/08/26 00:58:30;;;;;;;;;;;;;;;23.94;86.39;96152.92;108465;1278;22553;-91
2023/08/26 01:00:56;;;;;;;;;;;;;;;23.95;86.85;96150.11;108461;1270;125181;-91
2023/08/26 01:03:22;;;;;;;;;;;;;;;23.94;86.46;96149.21;108598;1270;22939;-91
2023/08/26 01:05:48;;;;;;;;;;;;;;;23.95;86.20;96151.02;108447;1276;23146;-92
2023/08/26 01:08:14;;;;;;;;;;;;;;;23.97;86.37;96149.78;108328;1276;124340;-92
2023/08/26 01:10:41;;;;;;;;;;;;;;;23.98;86.95;96149.89;108518;1278;22887;-91
2023/08/26 01:13:09;;;;;;;;;;;;;;;23.94;86.57;96147.15;108572;1266;124491;-91
2023/08/26 01:15:54;;;;;;;;;;;;;;;23.93;86.05;96144.45;108627;1276;22553;-91
2023/08/26 01:18:20;;;;;;;;;;;;;;;23.95;85.96;96143.00;108516;1276;22522;-91
2023/08/26 01:20:46;;;;;;;;;;;;;;;23.98;85.84;96141.81;108613;1273;124737;-91
2023/08/26 01:23:18;;;;;;;;;;;;;;;23.99;86.38;96139.90;108481;1270;26573;-92
2023/08/26 01:25:46;;;;;;;;;;;;;;;23.98;85.75;96137.09;108528;1270;124459;-92
2023/08/26 01:28:14;;;;;;;;;;;;;;;24.00;86.07;96137.18;108444;1275;24161;-91
2023/08/26 01:30:41;;;;;;;;;;;;;;;24.02;85.91;96135.42;108430;1279;24234;-91
2023/08/26 01:33:28;;;;;;;;;;;;;;;24.02;85.87;96137.27;108482;1279;22543;-91
2023/08/26 01:35:58;;;;;;;;;;;;;;;24.01;85.60;96140.36;108495;1273;23178;-91
2023/08/26 01:38:33;;;;;;;;;;;;;;;24.04;85.65;96141.67;108664;1270;124484;-91
2023/08/26 01:41:19;;;;;;;;;;;;;;;24.04;85.35;96139.23;108541;1278;22556;-90
2023/08/26 01:43:45;;;;;;;;;;;;;;;24.08;85.30;96139.16;108390;1277;124778;-91
2023/08/26 01:46:12;;;;;;;;;;;;;;;24.10;85.12;96139.27;108534;1278;22509;-90
2023/08/26 01:48:38;;;;;;;;;;;;;;;24.13;85.17;96135.00;108543;1278;22516;-91
2023/08/26 01:51:21;;;;;;;;;;;;;;;24.15;85.15;96132.06;108854;1271;22534;-91
2023/08/26 01:53:48;;;;;;;;;;;;;;;24.18;85.11;96133.33;108497;1274;22574;-90
2023/08/26 01:56:19;;;;;;;;;;;;;;;24.19;85.47;96133.57;108548;1271;124806;-89
2023/08/26 01:58:46;;;;;;;;;;;;;;;24.18;85.63;96133.42;108591;1273;23231;-90
2023/08/26 02:01:12;;;;;;;;;;;;;;;24.17;85.98;96135.23;108567;1273;124486;-90
2023/08/26 02:03:52;;;;;;;;;;;;;;;24.14;86.33;96135.73;108565;1278;27390;-89
2023/08/26 02:06:18;;;;;;;;;;;;;;;24.14;86.71;96140.67;108333;1274;22594;-91
2023/08/26 02:08:47;;;;;;;;;;;;;;;24.17;87.08;96136.30;108484;1277;124653;-90
2023/08/26 02:11:13;;;;;;;;;;;;;;;24.21;87.37;96138.02;108595;1274;22810;-90
2023/08/26 02:13:40;;;;;;;;;;;;;;;24.21;87.48;96136.86;108312;1278;124715;-90
2023/08/26 02:16:09;;;;;;;;;;;;;;;24.20;87.62;96132.40;108433;1276;22553;-91
2023/08/26 02:18:35;;;;;;;;;;;;;;;24.22;87.82;96135.77;108500;1272;22550;-91
2023/08/26 02:21:01;;;;;;;;;;;;;;;24.25;88.02;96134.84;108194;1277;124527;-92
2023/08/26 02:23:28;;;;;;;;;;;;;;;24.28;87.83;96136.63;108584;1278;22560;-91
2023/08/26 02:25:59;;;;;;;;;;;;;;;24.29;87.86;96137.70;108354;1274;124392;-90
2023/08/26 02:28:37;;;;;;;;;;;;;;;24.32;88.03;96134.23;108703;1273;24359;-90
2023/08/26 02:31:12;;;;;;;;;;;;;;;24.34;87.83;96133.36;108514;1278;124431;-91
2023/08/26 02:33:38;;;;;;;;;;;;;;;24.39;87.75;96132.00;108518;1274;22514;-92
2023/08/26 02:36:04;;;;;;;;;;;;;;;24.44;87.73;96139.16;108747;1278;24343;-91
2023/08/26 02:38:34;;;;;;;;;;;;;;;24.46;87.80;96133.36;108362;1276;124473;-90
2023/08/26 02:41:02;;;;;;;;;;;;;;;24.48;87.83;96128.92;108651;1270;25446;-91
2023/08/26 02:43:28;;;;;;;;;;;;;;;24.49;88.10;96130.45;108423;1273;124736;-91
2023/08/26 02:45:54;;;;;;;;;;;;;;;24.50;88.07;96128.22;108348;1273;22543;-92
2023/08/26 02:48:21;;;;;;;;;;;;;;;24.51;87.90;96127.63;108507;1273;22558;-91
2023/08/26 02:50:47;;;;;;;;;;;;;;;24.52;88.15;96135.17;108332;1278;124383;-91
2023/08/26 02:53:16;;;;;;;;;;;;;;;24.52;88.28;96135.48;108584;1278;22559;-91
2023/08/26 02:55:43;;;;;;;;;;;;;;;24.52;88.73;96138.30;108606;1270;124273;-91
2023/08/26 02:58:18;;;;;;;;;;;;;;;24.51;88.60;96141.06;108426;1274;22550;-90
2023/08/26 03:00:46;;;;;;;;;;;;;;;24.52;88.82;96139.63;108508;1273;22579;-91
2023/08/26 03:03:18;;;;;;;;;;;;;;;24.52;88.97;96147.80;108328;1276;125050;-89
2023/08/26 03:05:44;;;;;;;;;;;;;;;24.53;88.97;96154.44;108314;1274;22522;-91
2023/08/26 03:08:10;;;;;;;;;;;;;;;24.52;89.13;96158.54;108336;1273;124864;-91
2023/08/26 03:10:36;;;;;;;;;;;;;;;24.52;89.37;96157.73;108306;1277;23236;-92
2023/08/26 03:13:03;;;;;;;;;;;;;;;24.52;89.36;96159.39;108576;1270;125173;-91
2023/08/26 03:15:29;;;;;;;;;;;;;;;24.52;89.59;96160.29;108569;1278;24347;-90
2023/08/26 03:17:56;;;;;;;;;;;;;;;24.50;89.81;96160.04;108510;1273;22520;-91
2023/08/26 03:20:23;;;;;;;;;;;;;;;24.49;89.77;96164.88;108344;1273;124352;-89
2023/08/26 03:23:09;;;;;;;;;;;;;;;24.50;89.89;96167.42;108437;1275;25265;-91
2023/08/26 03:25:39;;;;;;;;;;;;;;;24.51;89.79;96166.04;108700;1270;124481;-92
2023/08/26 03:28:05;;;;;;;;;;;;;;;24.52;89.97;96166.86;108567;1276;24162;-91
2023/08/26 03:30:31;;;;;;;;;;;;;;;24.53;90.01;96166.81;108461;1272;25195;-91
2023/08/26 03:32:59;;;;;;;;;;;;;;;24.52;89.93;96168.78;108426;1273;124623;-91
2023/08/26 03:35:26;;;;;;;;;;;;;;;24.51;90.30;96172.83;108267;1272;22549;-92
2023/08/26 03:37:53;;;;;;;;;;;;;;;24.49;90.32;96174.06;108471;1278;124869;-92
2023/08/26 03:40:22;;;;;;;;;;;;;;;24.47;90.62;96180.19;108648;1272;23964;-91
2023/08/26 03:42:50;;;;;;;;;;;;;;;24.46;90.66;96187.48;108407;1279;22544;-90
2023/08/26 03:45:16;;;;;;;;;;;;;;;24.43;90.76;96191.42;108592;1270;125046;-90
2023/08/26 03:47:51;;;;;;;;;;;;;;;24.42;91.00;96189.20;108561;1272;25489;-91
2023/08/26 03:50:23;;;;;;;;;;;;;;;24.41;91.04;96194.27;108409;1279;124943;-91
2023/08/26 03:52:50;;;;;;;;;;;;;;;24.39;91.00;96198.55;108609;1270;23936;-91
2023/08/26 03:55:16;;;;;;;;;;;;;;;24.36;91.35;96202.98;108510;1278;124591;-91
2023/08/26 03:57:43;;;;;;;;;;;;;;;24.32;91.37;96197.96;108620;1272;22630;-92
2023/08/26 04:00:09;;;;;;;;;;;;;;;24.23;90.63;96201.31;108467;1271;22523;-92
2023/08/26 04:02:38;;;;;;;;;;;;;;;24.15;91.72;96200.29;108624;1272;124957;-91
2023/08/26 04:05:10;;;;;;;;;;;;;;;24.08;92.05;96201.59;108723;1272;24177;-91
2023/08/26 04:07:36;;;;;;;;;;;;;;;23.98;91.79;96197.59;108522;1278;125414;-92
2023/08/26 04:10:22;;;;;;;;;;;;;;;23.88;92.40;96202.27;108860;1270;22509;-91
2023/08/26 04:12:50;;;;;;;;;;;;;;;23.83;93.13;96205.80;108718;1273;23645;-92
2023/08/26 04:15:20;;;;;;;;;;;;;;;23.80;93.89;96208.74;108629;1270;124305;-91
2023/08/26 04:17:57;;;;;;;;;;;;;;;23.73;94.40;96213.79;108610;1272;26108;-91
2023/08/26 04:20:43;;;;;;;;;;;;;;;23.64;94.94;96216.89;108507;1276;124778;-90
2023/08/26 04:23:09;;;;;;;;;;;;;;;23.58;95.40;96216.20;108602;1274;22558;-91
2023/08/26 04:25:37;;;;;;;;;;;;;;;23.53;95.67;96216.92;108547;1273;125204;-91
2023/08/26 04:28:04;;;;;;;;;;;;;;;23.50;95.84;96222.03;108766;1273;23088;-91
2023/08/26 04:30:36;;;;;;;;;;;;;;;23.47;95.57;96226.77;108480;1278;22554;-92
2023/08/26 04:33:12;;;;;;;;;;;;;;;23.42;95.70;96225.53;108634;1272;124815;-92
2023/08/26 04:35:57;;;;;;;;;;;;;;;23.37;95.03;96226.21;108673;1270;25294;-92
2023/08/26 04:38:24;;;;;;;;;;;;;;;23.36;94.86;96233.44;108607;1272;124630;-91
2023/08/26 04:40:50;;;;;;;;;;;;;;;23.35;94.96;96234.17;108641;1277;22504;-92
2023/08/26 04:43:17;;;;;;;;;;;;;;;23.32;95.34;96234.40;108560;1270;125369;-92
2023/08/26 04:45:45;;;;;;;;;;;;;;;23.28;95.63;96234.19;108838;1272;22517;-91
2023/08/26 04:48:11;;;;;;;;;;;;;;;23.23;96.07;96232.59;108610;1270;23789;-91
2023/08/26 04:50:37;;;;;;;;;;;;;;;23.19;96.41;96228.67;108645;1278;124361;-92
2023/08/26 04:53:05;;;;;;;;;;;;;;;23.15;97.27;96230.59;108717;1273;23273;-91
2023/08/26 04:55:32;;;;;;;;;;;;;;;23.12;97.80;96225.98;108583;1272;125549;-92
2023/08/26 04:57:58;;;;;;;;;;;;;;;23.08;98.32;96224.95;108773;1276;22561;-91
2023/08/26 05:00:44;;;;;;;;;;;;;;;23.04;99.20;96221.83;108772;1270;22544;-92
2023/08/26 05:03:11;;;;;;;;;;;;;;;22.99;99.61;96223.16;108482;1278;124354;-90
2023/08/26 05:05:57;;;;;;;;;;;;;;;22.94;99.87;96219.66;108767;1272;24071;-91
2023/08/26 05:18:24;;;;;;;;;;;;;;;22.87;100.00;96214.51;105670;1307;556834;-91
2023/08/26 05:21:46;;;;;;;;;;;;;;;22.84;100.00;96217.36;107890;1287;123768;-91
2023/08/26 05:25:13;;;;;;;;;;;;;;;22.84;100.00;96208.20;107703;1287;22492;-92
2023/08/26 05:27:39;;;;;;;;;;;;;;;22.83;100.00;96205.39;107781;1294;22574;-91
2023/08/26 05:30:08;;;;;;;;;;;;;;;22.83;100.00;96205.66;106952;1288;1063938;-91
2023/08/26 05:32:36;;;;;;;;;;;;;;;22.82;100.00;96205.64;107716;1292;124149;-91
2023/08/26 05:35:06;;;;;;;;;;;;;;;22.81;100.00;96204.14;108214;1280;25423;-92
2023/08/26 05:37:33;;;;;;;;;;;;;;;22.81;100.00;96199.96;108164;1281;124215;-91
2023/08/26 05:40:01;;;;;;;;;;;;;;;22.79;100.00;96195.92;107987;1281;22729;-92
2023/08/26 05:42:27;;;;;;;;;;;;;;;22.80;100.00;96200.86;108106;1287;22564;-92
2023/08/26 05:44:53;;;;;;;;;;;;;;;22.80;100.00;96201.17;108181;1284;124871;-92
2023/08/26 05:47:23;;;;;;;;;;;;;;;22.81;100.00;96206.91;108203;1279;23326;-91
2023/08/26 05:50:01;;;;;;;;;;;;;;;22.87;100.00;96208.25;108230;1287;125009;-92
2023/08/26 05:52:27;;;;;;;;;;;;;;;22.89;100.00;96206.23;108306;1284;22546;-92
2023/08/26 05:54:55;;;;;;;;;;;;;;;22.93;100.00;96202.36;108428;1276;24212;-90
2023/08/26 05:57:42;;;;;;;;;;;;;;;22.94;100.00;96202.80;108283;1283;22549;-92
2023/08/26 06:00:08;;;;;;;;;;;;;;;22.95;100.00;96200.43;108308;1282;24220;-92
2023/08/26 06:02:35;;;;;;;;;;;;;;;22.95;100.00;96201.02;108298;1278;124334;-92
2023/08/26 06:05:05;;;;;;;;;;;;;;;22.96;100.00;96203.91;108264;1280;22608;-91
2023/08/26 06:07:33;;;;;;;;;;;;;;;23.00;100.00;96209.80;108405;1284;125174;-91
2023/08/26 06:10:00;;;;;;;;;;;;;;;23.03;100.00;96212.92;108353;1284;22537;-92
2023/08/26 06:12:30;;;;;;;;;;;;;;;23.07;100.00;96214.20;108418;1278;22490;-92
2023/08/26 06:15:17;;;;;;;;;;;;;;;23.10;100.00;96213.35;108508;1263;124367;-92
2023/08/26 06:18:28;;;;;;;;;;;;;;;23.13;100.00;96210.81;108322;1279;25265;-91
2023/08/26 06:21:15;;;;;;;;;;;;;;;23.15;100.00;96209.75;108308;1285;124185;-92
2023/08/26 06:23:42;;;;;;;;;;;;;;;23.17;100.00;96217.39;108200;1286;22662;-91
2023/08/26 06:26:08;;;;;;;;;;;;;;;23.19;100.00;96219.18;108120;1285;125072;-92
2023/08/26 06:28:35;;;;;;;;;;;;;;;23.20;100.00;96224.95;108451;1279;23002;-91
2023/08/26 06:31:02;;;;;;;;;;;;;;;23.20;100.00;96228.93;108113;1281;22462;-91
2023/08/26 06:33:48;;;;;;;;;;;;;;;23.20;100.00;96228.73;108310;1276;22590;-90
2023/08/26 06:36:18;;;;;;;;;;;;;;;23.21;100.00;96232.22;108388;1278;25255;-92
2023/08/26 06:38:45;;;;;;;;;;;;;;;23.21;100.00;96229.99;108197;1285;124345;-92
2023/08/26 06:41:32;;;;;;;;;;;;;;;23.20;100.00;96230.27;108362;1279;22520;-91
2023/08/26 06:43:59;;;;;;;;;;;;;;;23.20;100.00;96230.10;108007;1285;125163;-91
2023/08/26 06:46:26;;;;;;;;;;;;;;;23.22;100.00;96234.55;108301;1285;22601;-91
2023/08/26 06:49:01;;;;;;;;;;;;;;;23.23;100.00;96236.89;108116;1285;23013;-91
2023/08/26 06:51:27;;;;;;;;;;;;;;;23.23;100.00;96238.84;108170;1278;125621;-92
2023/08/26 06:54:14;;;;;;;;;;;;;;;23.23;100.00;96241.38;108366;1279;22527;-91
2023/08/26 06:56:45;;;;;;;;;;;;;;;23.24;100.00;96244.09;108082;1279;125074;-91
2023/08/26 06:59:11;;;;;;;;;;;;;;;23.24;100.00;96242.23;108447;1279;24170;-92
2023/08/26 07:01:37;;;;;;;;;;;;;;;23.26;100.00;96248.02;108244;1280;124364;-91
2023/08/26 07:04:24;;;;;;;;;;;;;;;23.27;100.00;96245.69;108336;1285;22512;-91
2023/08/26 07:06:50;;;;;;;;;;;;;;;23.29;100.00;96246.66;108179;1280;24051;-91
2023/08/26 07:09:16;;;;;;;;;;;;;;;23.29;100.00;96246.39;108236;1281;125166;-91
2023/08/26 07:11:42;;;;;;;;;;;;;;;23.31;100.00;96251.36;108188;1278;22556;-91
2023/08/26 07:14:08;;;;;;;;;;;;;;;23.33;100.00;96248.40;108220;1284;125049;-91
2023/08/26 07:16:41;;;;;;;;;;;;;;;23.35;100.00;96249.13;108241;1277;22538;-91
2023/08/26 07:19:08;;;;;;;;;;;;;;;23.42;100.00;96252.90;108343;1285;22585;-91
2023/08/26 07:21:34;;;;;;;;;;;;;;;23.47;100.00;96256.45;108268;1277;124997;-92
2023/08/26 07:24:01;;;;;;;;;;;;;;;23.54;100.00;96258.46;108255;1285;22480;-92
2023/08/26 07:26:27;;;;;;;;;;;;;;;23.61;100.00;96261.67;108189;1281;124612;-92
2023/08/26 07:28:59;;;;;;;;;;;;;;;23.67;100.00;96265.36;108464;1277;22614;-91
2023/08/26 07:31:37;;;;;;;;;;;;;;;23.72;100.00;96262.91;108480;1274;124296;-92
2023/08/26 07:34:06;;;;;;;;;;;;;;;23.77;100.00;96263.83;108479;1279;25405;-91
2023/08/26 07:36:32;;;;;;;;;;;;;;;23.81;100.00;96264.08;108592;1281;22534;-92
2023/08/26 07:39:07;;;;;;;;;;;;;;;23.84;100.00;96260.09;108265;1281;124281;-92
2023/08/26 07:41:43;;;;;;;;;;;;;;;23.86;100.00;96258.59;108521;1274;23107;-91
2023/08/26 07:44:10;;;;;;;;;;;;;;;23.87;100.00;96259.39;108344;1276;124814;-92
2023/08/26 07:46:53;;;;;;;;;;;;;;;23.90;100.00;96258.96;108516;1279;22804;-91
2023/08/26 07:49:20;;;;;;;;;;;;;;;23.92;100.00;96257.52;108474;1279;22526;-92
2023/08/26 07:51:47;;;;;;;;;;;;;;;23.93;100.00;96261.46;108290;1280;125016;-91
2023/08/26 07:54:12;;;;;;;;;;;;;;;23.98;100.00;96260.12;108437;1280;22651;-92
2023/08/26 07:56:41;;;;;;;;;;;;;;;24.02;100.00;96256.17;108323;1280;124345;-90
2023/08/26 07:59:09;;;;;;;;;;;;;;;24.06;100.00;96258.44;108562;1280;22648;-90
2023/08/26 08:01:48;;;;;;;;;;;;;;;24.12;100.00;96259.81;108398;1272;124379;-91
2023/08/26 08:04:15;;;;;;;;;;;;;;;24.16;100.00;96261.71;108513;1273;22691;-91
2023/08/26 08:06:41;;;;;;;;;;;;;;;24.20;100.00;96257.60;108499;1272;23811;-91
2023/08/26 08:09:09;;;;;;;;;;;;;;;24.23;100.00;96254.08;108386;1273;125195;-91
2023/08/26 08:11:37;;;;;;;;;;;;;;;24.28;100.00;96256.38;108450;1278;23350;-92
2023/08/26 08:14:03;;;;;;;;;;;;;;;24.30;100.00;96254.68;108470;1279;125489;-90
2023/08/26 08:16:29;;;;;;;;;;;;;;;24.33;100.00;96252.06;108457;1272;23621;-91
2023/08/26 08:18:57;;;;;;;;;;;;;;;24.38;100.00;96251.66;108486;1277;22657;-92
2023/08/26 08:21:23;;;;;;;;;;;;;;;24.46;100.00;96250.21;108304;1274;124548;-90
2023/08/26 08:23:50;;;;;;;;;;;;;;;24.52;100.00;96251.50;108461;1275;22524;-90
2023/08/26 08:26:21;;;;;;;;;;;;;;;24.57;100.00;96251.27;108463;1280;124598;-91
2023/08/26 08:28:48;;;;;;;;;;;;;;;24.63;100.00;96254.10;108462;1273;22459;-91
2023/08/26 08:31:34;;;;;;;;;;;;;;;24.67;100.00;96251.90;108437;1274;124501;-91
2023/08/26 08:34:00;;;;;;;;;;;;;;;24.71;100.00;96243.27;108414;1280;22590;-91
2023/08/26 08:36:26;;;;;;;;;;;;;;;24.75;100.00;96241.40;108536;1272;26374;-90
2023/08/26 08:38:53;;;;;;;;;;;;;;;24.77;100.00;96242.72;108337;1280;124699;-91
2023/08/26 08:41:19;;;;;;;;;;;;;;;24.80;100.00;96244.82;108451;1276;22682;-90
2023/08/26 08:43:45;;;;;;;;;;;;;;;24.85;100.00;96240.10;108541;1275;124578;-91
2023/08/26 08:46:24;;;;;;;;;;;;;;;24.88;100.00;96235.56;108364;1272;23028;-89
2023/08/26 08:48:50;;;;;;;;;;;;;;;24.96;100.00;96237.96;108413;1274;23820;-92
2023/08/26 08:51:16;;;;;;;;;;;;;;;25.06;100.00;96231.16;108268;1278;125443;-90
2023/08/26 08:53:47;;;;;;;;;;;;;;;25.16;100.00;96230.30;108250;1280;23779;-90
2023/08/26 08:56:15;;;;;;;;;;;;;;;25.22;100.00;96229.14;108380;1275;124346;-91
2023/08/26 08:58:46;;;;;;;;;;;;;;;25.26;100.00;96228.90;108393;1280;22530;-91
2023/08/26 09:01:13;;;;;;;;;;;;;;;25.27;100.00;96224.90;108415;1280;22589;-91
2023/08/26 09:04:00;;;;;;;;;;;;;;;25.22;100.00;96224.08;108523;1280;23356;-91
2023/08/26 09:06:35;;;;;;;;;;;;;;;25.18;100.00;96233.20;108381;1275;22660;-89
2023/08/26 09:09:02;;;;;;;;;;;;;;;25.16;100.00;96236.79;108370;1272;124903;-91
2023/08/26 09:11:30;;;;;;;;;;;;;;;25.11;100.00;96230.86;108384;1277;22509;-90
2023/08/26 09:14:02;;;;;;;;;;;;;;;25.05;100.00;96234.25;108476;1272;124634;-90
2023/08/26 09:16:28;;;;;;;;;;;;;;;25.01;100.00;96239.71;108341;1280;22567;-89
2023/08/26 09:18:58;;;;;;;;;;;;;;;24.98;100.00;96243.48;108380;1275;22544;-90
2023/08/26 09:21:25;;;;;;;;;;;;;;;24.94;100.00;96244.79;108356;1273;124739;-90
2023/08/26 09:23:52;;;;;;;;;;;;;;;24.91;100.00;96244.27;108404;1275;24204;-91
2023/08/26 09:26:37;;;;;;;;;;;;;;;24.86;100.00;96248.33;108389;1280;125442;-91
2023/08/26 09:29:41;;;;;;;;;;;;;;;24.81;100.00;96252.46;108735;1257;22732;-90
2023/08/26 09:32:07;;;;;;;;;;;;;;;24.77;100.00;96264.44;108303;1275;124734;-91
2023/08/26 09:34:34;;;;;;;;;;;;;;;24.76;100.00;96267.01;108437;1273;22764;-91
2023/08/26 09:37:00;;;;;;;;;;;;;;;24.70;100.00;96266.98;108297;1275;22660;-91
2023/08/26 09:39:26;;;;;;;;;;;;;;;24.66;100.00;96286.50;108132;1282;125424;-91
2023/08/26 09:41:54;;;;;;;;;;;;;;;24.64;100.00;96284.65;108445;1276;22550;-91
2023/08/26 09:44:22;;;;;;;;;;;;;;;24.57;100.00;96260.09;108493;1277;125447;-91
2023/08/26 09:46:57;;;;;;;;;;;;;;;24.49;100.00;96238.29;108629;1280;23779;-91
2023/08/26 09:49:24;;;;;;;;;;;;;;;24.43;100.00;96233.29;108375;1277;24847;-91
2023/08/26 09:51:52;;;;;;;;;;;;;;;24.39;100.00;96234.61;108511;1273;124418;-91
2023/08/26 09:54:19;;;;;;;;;;;;;;;24.32;100.00;96217.97;108513;1273;22570;-90
2023/08/26 09:56:48;;;;;;;;;;;;;;;24.28;100.00;96204.82;108439;1273;124506;-91
2023/08/26 09:59:14;;;;;;;;;;;;;;;24.23;100.00;96211.55;108494;1273;23134;-90
2023/08/26 10:01:42;;;;;;;;;;;;;;;24.19;100.00;96223.63;108411;1281;124890;-90
2023/08/26 10:04:11;;;;;;;;;;;;;;;24.15;100.00;96225.08;108612;1280;25390;-90
2023/08/26 10:06:43;;;;;;;;;;;;;;;24.11;100.00;96225.04;108607;1279;23718;-90
2023/08/26 10:09:12;;;;;;;;;;;;;;;24.04;100.00;96215.94;108436;1276;124983;-91
2023/08/26 10:11:40;;;;;;;;;;;;;;;23.92;100.00;96218.90;108521;1281;24289;-91
2023/08/26 10:14:09;;;;;;;;;;;;;;;23.82;100.00;96233.14;108326;1280;125947;-91
2023/08/26 10:16:36;;;;;;;;;;;;;;;23.70;100.00;96244.67;108362;1282;22796;-90
2023/08/26 10:19:03;;;;;;;;;;;;;;;23.55;100.00;96241.44;108454;1281;22568;-91
2023/08/26 10:21:29;;;;;;;;;;;;;;;23.42;100.00;96240.39;108348;1280;125234;-91
2023/08/26 10:24:04;;;;;;;;;;;;;;;23.33;100.00;96237.73;108416;1275;22525;-90
2023/08/26 10:26:31;;;;;;;;;;;;;;;23.28;100.00;96229.58;108317;1276;124553;-91
2023/08/26 10:28:57;;;;;;;;;;;;;;;23.23;100.00;96240.02;108496;1275;22865;-90
2023/08/26 10:31:31;;;;;;;;;;;;;;;23.21;100.00;96268.73;108391;1280;22513;-90
2023/08/26 10:34:08;;;;;;;;;;;;;;;23.18;100.00;96300.60;108549;1276;22598;-90
2023/08/26 10:36:35;;;;;;;;;;;;;;;23.15;100.00;96315.98;108398;1275;22714;-90
2023/08/26 10:39:02;;;;;;;;;;;;;;;23.02;100.00;96319.45;107978;1280;124500;-90
2023/08/26 10:41:29;;;;;;;;;;;;;;;22.84;100.00;96326.19;107874;1276;23735;-90
2023/08/26 10:43:56;;;;;;;;;;;;;;;22.70;100.00;96312.08;107757;1282;124652;-90
2023/08/26 10:46:36;;;;;;;;;;;;;;;22.60;100.00;96285.66;108054;1281;22564;-91
2023/08/26 10:49:03;;;;;;;;;;;;;;;22.44;100.00;96273.15;107869;1280;22521;-90
2023/08/26 10:51:30;;;;;;;;;;;;;;;22.29;100.00;96281.98;107921;1281;125908;-90
2023/08/26 10:54:04;;;;;;;;;;;;;;;22.24;100.00;96293.66;108120;1281;22680;-90
2023/08/26 10:56:33;;;;;;;;;;;;;;;22.21;100.00;96284.50;108004;1272;124442;-90
2023/08/26 10:58:59;;;;;;;;;;;;;;;22.18;100.00;96275.34;108046;1273;23969;-90
2023/08/26 11:01:25;;;;;;;;;;;;;;;22.14;100.00;96268.86;108041;1275;23497;-90
2023/08/26 11:03:52;;;;;;;;;;;;;;;22.08;100.00;96268.27;107801;1281;124378;-91
2023/08/26 11:06:22;;;;;;;;;;;;;;;22.02;100.00;96279.02;108009;1280;22514;-90
2023/08/26 11:08:52;;;;;;;;;;;;;;;21.93;100.00;96276.52;108011;1276;124809;-89
2023/08/26 11:11:19;;;;;;;;;;;;;;;21.80;100.00;96266.45;108078;1275;22502;-90
2023/08/26 11:13:45;;;;;;;;;;;;;;;21.70;100.00;96257.03;107901;1281;125410;-91
2023/08/26 11:16:12;;;;;;;;;;;;;;;21.60;100.00;96257.49;108149;1281;22505;-91
2023/08/26 11:18:38;;;;;;;;;;;;;;;21.52;100.00;96278.17;108007;1275;24242;-91
2023/08/26 11:21:04;;;;;;;;;;;;;;;21.43;100.00;96306.74;107825;1275;125017;-91
2023/08/26 11:23:32;;;;;;;;;;;;;;;21.33;100.00;96357.21;108210;1275;22560;-91
2023/08/26 11:25:58;;;;;;;;;;;;;;;21.29;100.00;96415.28;108013;1281;126404;-91
2023/08/26 11:28:26;;;;;;;;;;;;;;;21.20;100.00;96439.85;108363;1273;22563;-91
2023/08/26 11:30:52;;;;;;;;;;;;;;;21.07;100.00;96426.65;108098;1280;22529;-90
2023/08/26 11:33:20;;;;;;;;;;;;;;;20.97;100.00;96426.23;107813;1273;124520;-89
2023/08/26 11:35:47;;;;;;;;;;;;;;;20.91;100.00;96439.71;108004;1274;22635;-90
2023/08/26 11:38:13;;;;;;;;;;;;;;;20.87;100.00;96465.98;107906;1274;124714;-90
2023/08/26 11:40:39;;;;;;;;;;;;;;;20.84;100.00;96506.23;107899;1273;22515;-90
2023/08/26 11:43:08;;;;;;;;;;;;;;;20.79;100.00;96541.16;107981;1275;22700;-90
2023/08/26 11:45:37;;;;;;;;;;;;;;;20.74;100.00;96563.60;107819;1275;125008;-91
2023/08/26 11:48:03;;;;;;;;;;;;;;;20.64;100.00;96553.69;108148;1275;22725;-91
2023/08/26 11:50:29;;;;;;;;;;;;;;;20.53;100.00;96535.13;107968;1280;125008;-91
2023/08/26 11:52:55;;;;;;;;;;;;;;;20.43;100.00;96523.63;108177;1277;22719;-91
2023/08/26 11:55:22;;;;;;;;;;;;;;;20.39;100.00;96507.14;108161;1280;22545;-90
2023/08/26 11:57:51;;;;;;;;;;;;;;;20.37;100.00;96478.23;107970;1275;124558;-91
2023/08/26 12:00:18;;;;;;;;;;;;;;;20.33;100.00;96427.94;108093;1278;24141;-90
2023/08/26 12:02:45;;;;;;;;;;;;;;;20.26;100.00;96397.95;108061;1281;125197;-90
2023/08/26 12:05:16;;;;;;;;;;;;;;;20.19;100.00;96367.47;108167;1280;22515;-91
2023/08/26 12:07:43;;;;;;;;;;;;;;;20.13;100.00;96360.63;108227;1278;125322;-91
2023/08/26 12:10:14;;;;;;;;;;;;;;;20.06;100.00;96342.48;107998;1280;25217;-90
2023/08/26 12:12:40;;;;;;;;;;;;;;;19.98;100.00;96313.98;108085;1274;25344;-90
2023/08/26 12:15:07;;;;;;;;;;;;;;;19.92;100.00;96286.84;108019;1280;124933;-90
2023/08/26 12:18:01;;;;;;;;;;;;;;;19.85;100.00;96260.23;107931;1276;24257;-90
2023/08/26 12:20:31;;;;;;;;;;;;;;;19.73;100.00;96207.81;108094;1273;124872;-91
2023/08/26 12:22:58;;;;;;;;;;;;;;;19.61;100.00;96177.87;108026;1282;22699;-90
2023/08/26 12:25:31;;;;;;;;;;;;;;;19.51;100.00;96137.92;108013;1276;22517;-90
2023/08/26 12:28:04;;;;;;;;;;;;;;;19.39;100.00;96117.20;108010;1276;25314;-91
2023/08/26 12:30:31;;;;;;;;;;;;;;;19.30;100.00;96116.66;108131;1278;25304;-91
2023/08/26 12:33:08;;;;;;;;;;;;;;;19.25;100.00;96180.59;108427;1280;125062;-90
2023/08/26 12:35:35;;;;;;;;;;;;;;;19.23;100.00;96162.77;108419;1275;22537;-91
2023/08/26 12:38:03;;;;;;;;;;;;;;;19.26;100.00;96200.59;108344;1278;124795;-91
2023/08/26 12:40:39;;;;;;;;;;;;;;;19.25;100.00;96279.59;108214;1281;22523;-91
2023/08/26 12:43:06;;;;;;;;;;;;;;;19.19;100.00;96326.16;108514;1280;22540;-91
2023/08/26 12:45:50;;;;;;;;;;;;;;;19.14;100.00;96324.85;108229;1280;124356;-92
2023/08/26 12:48:16;;;;;;;;;;;;;;;19.15;100.00;96312.55;108590;1280;22493;-91
2023/08/26 12:50:42;;;;;;;;;;;;;;;19.18;100.00;96298.79;108220;1282;124517;-91
2023/08/26 12:53:08;;;;;;;;;;;;;;;19.20;100.00;96299.20;108457;1276;22572;-89